Time,TemperatureF,DewpointF,PressureIn,WindDirection,WindDirectionDegrees,WindSpeedMPH,WindSpeedGustMPH,Humidity,HourlyPrecipIn,Conditions,Clouds,dailyrainin,SolarRadiationWatts/m^2,SoftwareType,DateUTC
2013-02-15 00:02:00,74.1,72.3,30.09,SE,138,0.0,0.0,94,0.00,,,0.02,0.0,meteohub,2013-02-15 04:02:00,
2013-02-15 00:07:00,74.1,72.3,30.09,SE,140,0.0,0.0,94,0.00,,,0.00,0.0,meteohub,2013-02-15 04:07:00,
2013-02-15 00:12:00,73.9,72.1,30.09,SE,138,0.0,0.0,94,0.00,,,0.00,0.0,meteohub,2013-02-15 04:12:00,
2013-02-15 00:17:00,73.9,72.1,30.08,SE,140,0.0,0.0,94,0.00,,,0.00,0.0,meteohub,2013-02-15 04:17:00,
2013-02-15 00:22:00,73.9,71.8,30.08,SE,138,0.0,0.0,93,0.00,,,0.00,0.0,meteohub,2013-02-15 04:22:00,
2013-02-15 00:27:00,73.9,71.8,30.08,SE,138,0.0,0.0,93,0.00,,,0.00,0.0,meteohub,2013-02-15 04:27:00,
2013-02-15 00:32:00,73.9,71.8,30.08,SE,145,0.0,0.0,93,0.00,,,0.00,0.0,meteohub,2013-02-15 04:32:00,
2013-02-15 00:37:00,73.9,71.8,30.08,SSE,147,0.0,0.0,93,0.00,,,0.00,0.0,meteohub,2013-02-15 04:37:00,
2013-02-15 00:42:00,73.8,71.6,30.08,SSE,148,0.0,0.0,93,0.00,,,0.00,0.0,meteohub,2013-02-15 04:42:00,
2013-02-15 00:47:00,73.8,71.6,30.08,SSE,147,0.0,0.0,93,0.00,,,0.00,0.0,meteohub,2013-02-15 04:47:00,
2013-02-15 00:52:00,73.8,71.2,30.08,SE,145,0.0,0.0,92,0.00,,,0.00,0.0,meteohub,2013-02-15 04:52:00,
2013-02-15 00:57:00,73.8,71.2,30.08,SSE,147,0.0,0.0,92,0.00,,,0.00,0.0,meteohub,2013-02-15 04:57:00,
2013-02-15 01:00:00,73.8,71.2,30.08,SSE,147,0.0,0.0,92,0.00,,,0.00,0.0,meteohub,2013-02-15 05:00:00,
2013-02-15 01:01:00,73.8,71.2,30.08,SSE,147,0.0,0.0,92,0.00,,,0.00,0.0,meteohub,2013-02-15 05:01:00,
2013-02-15 01:07:00,73.8,71.2,30.08,SSE,147,0.0,0.0,92,0.00,,,0.00,0.0,meteohub,2013-02-15 05:07:00,
2013-02-15 06:18:00,70.9,70.3,30.07,SSE,150,0.0,0.0,98,0.00,,,0.00,0.0,meteohub,2013-02-15 10:18:00,
2013-02-15 06:23:00,70.9,70.3,30.07,SSE,147,0.0,0.0,98,0.00,,,0.00,0.0,meteohub,2013-02-15 10:23:00,
2013-02-15 06:28:00,70.9,70.3,30.08,SSE,147,0.0,0.0,98,0.00,,,0.00,0.0,meteohub,2013-02-15 10:28:00,
2013-02-15 06:34:00,70.9,70.3,30.08,SSE,150,0.0,0.0,98,0.00,,,0.00,0.0,meteohub,2013-02-15 10:34:00,
2013-02-15 06:39:00,70.9,70.3,30.08,SSE,150,0.0,0.0,98,0.00,,,0.00,0.0,meteohub,2013-02-15 10:39:00,
2013-02-15 06:44:00,70.9,70.3,30.08,SSE,150,0.0,0.0,98,0.00,,,0.00,0.0,meteohub,2013-02-15 10:44:00,
2013-02-15 06:49:00,70.9,70.3,30.08,SSE,150,0.0,0.0,98,0.00,,,0.00,0.0,meteohub,2013-02-15 10:49:00,
2013-02-15 06:54:00,70.9,70.3,30.08,SSE,148,0.0,0.0,98,0.00,,,0.00,0.0,meteohub,2013-02-15 10:54:00,
2013-02-15 06:59:00,70.9,70.3,30.09,SSE,151,0.0,0.0,98,0.00,,,0.00,5.0,meteohub,2013-02-15 10:59:00,
2013-02-15 07:04:00,70.9,70.3,30.09,SSE,150,0.0,0.0,98,0.00,,,0.00,7.0,meteohub,2013-02-15 11:04:00,
2013-02-15 07:09:00,70.9,70.3,30.09,SSE,148,0.0,0.0,98,0.00,,,0.00,18.0,meteohub,2013-02-15 11:09:00,
2013-02-15 07:14:00,71.1,70.5,30.09,SSE,150,0.0,0.0,98,0.00,,,0.00,28.0,meteohub,2013-02-15 11:14:00,
2013-02-15 07:19:00,71.2,70.7,30.09,SSE,148,0.0,0.0,98,0.00,,,0.00,53.0,meteohub,2013-02-15 11:19:00,
2013-02-15 07:24:00,71.6,71.1,30.09,SSE,152,0.0,0.0,98,0.00,,,0.00,70.0,meteohub,2013-02-15 11:24:00,
2013-02-15 07:29:00,71.8,70.9,30.10,SSE,150,0.0,0.0,97,0.00,,,0.00,90.0,meteohub,2013-02-15 11:29:00,
2013-02-15 07:34:00,72.1,71.2,30.10,SSE,150,0.0,0.0,97,0.00,,,0.00,106.0,meteohub,2013-02-15 11:34:00,
2013-02-15 07:39:00,72.7,71.8,30.10,SSE,150,0.0,0.0,97,0.00,,,0.00,123.0,meteohub,2013-02-15 11:39:00,
2013-02-15 07:44:00,73.0,71.8,30.10,SSE,148,0.0,0.0,96,0.00,,,0.00,137.0,meteohub,2013-02-15 11:44:00,
2013-02-15 07:49:00,73.8,72.3,30.10,SSE,150,0.0,0.0,95,0.00,,,0.00,157.0,meteohub,2013-02-15 11:49:00,
2013-02-15 07:54:00,73.9,71.8,30.10,SSE,150,0.0,0.0,93,0.00,,,0.00,185.0,meteohub,2013-02-15 11:54:00,
2013-02-15 07:59:00,74.5,72.0,30.11,SSE,150,0.0,0.0,92,0.00,,,0.00,206.0,meteohub,2013-02-15 11:59:00,
2013-02-15 08:04:00,75.0,72.0,30.11,SSE,148,0.0,0.0,90,0.00,,,0.00,202.0,meteohub,2013-02-15 12:04:00,
2013-02-15 08:09:00,75.4,72.0,30.11,SSE,150,0.0,0.0,89,0.00,,,0.00,252.0,meteohub,2013-02-15 12:09:00,
2013-02-15 08:14:00,75.6,71.8,30.11,SSE,150,0.0,0.0,88,0.00,,,0.00,276.0,meteohub,2013-02-15 12:14:00,
2013-02-15 08:19:00,76.1,72.0,30.11,SSE,148,3.0,0.0,87,0.00,,,0.00,290.0,meteohub,2013-02-15 12:19:00,
2013-02-15 08:24:00,76.5,72.0,30.11,SE,137,3.0,3.0,86,0.00,,,0.00,306.0,meteohub,2013-02-15 12:24:00,
2013-02-15 08:29:00,76.6,71.8,30.12,SE,137,0.0,8.0,85,0.00,,,0.00,324.0,meteohub,2013-02-15 12:29:00,
2013-02-15 08:34:00,77.2,72.0,30.12,SE,128,6.0,8.0,84,0.00,,,0.00,347.0,meteohub,2013-02-15 12:34:00,
2013-02-15 08:39:00,77.4,72.1,30.12,SE,136,0.0,8.0,84,0.00,,,0.00,370.0,meteohub,2013-02-15 12:39:00,
2013-02-15 08:44:00,77.7,72.1,30.12,ESE,116,2.0,8.0,83,0.00,,,0.00,391.0,meteohub,2013-02-15 12:44:00,
2013-02-15 08:49:00,77.9,72.3,30.12,SE,138,5.0,8.0,83,0.00,,,0.00,410.0,meteohub,2013-02-15 12:49:00,
2013-02-15 08:54:00,78.3,72.3,30.12,ESE,123,0.0,8.0,82,0.00,,,0.00,428.0,meteohub,2013-02-15 12:54:00,
2013-02-15 09:00:00,78.6,72.3,30.12,SE,137,0.0,8.0,81,0.00,,,0.00,450.0,meteohub,2013-02-15 13:00:00,
2013-02-15 09:05:00,79.0,72.3,30.12,ESE,119,0.0,8.0,80,0.00,,,0.00,468.0,meteohub,2013-02-15 13:05:00,
2013-02-15 09:10:00,79.3,72.3,30.12,SE,141,2.0,9.0,79,0.00,,,0.00,487.0,meteohub,2013-02-15 13:10:00,
2013-02-15 09:15:00,79.9,72.9,30.12,ESE,107,3.0,11.0,79,0.00,,,0.00,496.0,meteohub,2013-02-15 13:15:00,
2013-02-15 09:20:00,79.9,72.3,30.12,SSE,157,3.0,11.0,78,0.00,,,0.00,521.0,meteohub,2013-02-15 13:20:00,
2013-02-15 09:25:00,80.1,72.1,30.12,SE,134,9.0,11.0,77,0.00,,,0.00,540.0,meteohub,2013-02-15 13:25:00,
2013-02-15 09:30:00,80.1,71.8,30.12,ESE,114,0.0,8.0,76,0.00,,,0.00,560.0,meteohub,2013-02-15 13:30:00,
2013-02-15 09:35:00,80.4,71.8,30.12,ESE,112,6.0,10.0,75,0.00,,,0.00,577.0,meteohub,2013-02-15 13:35:00,
2013-02-15 09:40:00,81.0,72.3,30.12,East,97,5.0,10.0,75,0.00,,,0.00,596.0,meteohub,2013-02-15 13:40:00,
2013-02-15 09:45:00,81.1,72.1,30.13,East,95,5.0,10.0,74,0.00,,,0.00,612.0,meteohub,2013-02-15 13:45:00,
2013-02-15 09:50:00,81.3,72.3,30.13,East,92,0.0,9.0,74,0.00,,,0.00,639.0,meteohub,2013-02-15 13:50:00,
2013-02-15 09:56:00,81.9,72.7,30.13,SSE,148,7.0,7.0,74,0.00,,,0.00,665.0,meteohub,2013-02-15 13:56:00,
2013-02-15 10:01:00,81.9,72.3,30.13,SE,145,4.0,8.0,73,0.00,,,0.00,709.0,meteohub,2013-02-15 14:01:00,
2013-02-15 10:06:00,82.2,72.3,30.13,SSE,150,9.0,9.0,72,0.00,,,0.00,732.0,meteohub,2013-02-15 14:06:00,
2013-02-15 10:11:00,82.8,72.3,30.13,South,179,1.0,10.0,71,0.00,,,0.00,743.0,meteohub,2013-02-15 14:11:00,
2013-02-15 10:16:00,83.5,72.3,30.13,SE,131,6.0,10.0,69,0.00,,,0.00,802.0,meteohub,2013-02-15 14:16:00,
2013-02-15 10:21:00,83.7,72.0,30.13,SE,126,9.0,11.0,68,0.00,,,0.00,829.0,meteohub,2013-02-15 14:21:00,
2013-02-15 10:26:00,83.8,71.2,30.13,ENE,68,4.0,16.0,66,0.00,,,0.00,846.0,meteohub,2013-02-15 14:26:00,
2013-02-15 10:31:00,84.0,72.0,30.12,ESE,120,4.0,16.0,67,0.00,,,0.00,841.0,meteohub,2013-02-15 14:31:00,
2013-02-15 10:36:00,84.6,71.4,30.12,ESE,117,5.0,16.0,65,0.00,,,0.00,808.0,meteohub,2013-02-15 14:36:00,
2013-02-15 10:41:00,84.7,72.1,30.12,East,97,7.0,12.0,66,0.00,,,0.00,297.0,meteohub,2013-02-15 14:41:00,
2013-02-15 10:46:00,84.0,72.0,30.12,ESE,106,0.0,11.0,67,0.00,,,0.00,315.0,meteohub,2013-02-15 14:46:00,
2013-02-15 10:51:00,84.0,72.0,30.12,ESE,102,3.0,11.0,67,0.00,,,0.00,318.0,meteohub,2013-02-15 14:51:00,
2013-02-15 10:57:00,85.1,72.0,30.12,East,97,4.0,8.0,65,0.00,,,0.00,897.0,meteohub,2013-02-15 14:57:00,
2013-02-15 11:02:00,85.6,72.1,30.12,ESE,123,7.0,8.0,64,0.00,,,0.00,917.0,meteohub,2013-02-15 15:02:00,
2013-02-15 11:07:00,85.8,71.8,30.12,East,95,0.0,11.0,63,0.00,,,0.00,917.0,meteohub,2013-02-15 15:07:00,
2013-02-15 11:12:00,86.4,72.3,30.12,ESE,106,6.0,11.0,63,0.00,,,0.00,176.0,meteohub,2013-02-15 15:12:00,
2013-02-15 11:17:00,86.4,72.3,30.11,East,93,2.0,11.0,63,0.00,,,0.00,709.0,meteohub,2013-02-15 15:17:00,
2013-02-15 11:22:00,87.1,71.4,30.11,SSE,151,12.0,12.0,60,0.00,,,0.00,343.0,meteohub,2013-02-15 15:22:00,
2013-02-15 11:27:00,87.1,72.0,30.11,ESE,120,1.0,13.0,61,0.00,,,0.00,343.0,meteohub,2013-02-15 15:27:00,
2013-02-15 11:32:00,87.1,72.0,30.10,SSE,148,7.0,13.0,61,0.00,,,0.00,343.0,meteohub,2013-02-15 15:32:00,
2013-02-15 11:37:00,87.1,71.4,30.10,SSW,202,8.0,14.0,60,0.00,,,0.00,894.0,meteohub,2013-02-15 15:37:00,
2013-02-15 11:42:00,86.7,70.7,30.10,ESE,117,8.0,14.0,59,0.00,,,0.00,1045.0,meteohub,2013-02-15 15:42:00,
2013-02-15 11:47:00,86.7,70.7,30.10,SSE,147,0.0,16.0,59,0.00,,,0.00,989.0,meteohub,2013-02-15 15:47:00,
2013-02-15 11:52:00,87.1,71.1,30.10,SSE,165,5.0,17.0,59,0.00,,,0.00,980.0,meteohub,2013-02-15 15:52:00,
2013-02-15 11:57:00,87.1,71.1,30.10,SSE,157,13.0,17.0,59,0.00,,,0.00,1068.0,meteohub,2013-02-15 15:57:00,
2013-02-15 12:02:00,87.4,70.9,30.09,SSE,158,9.0,17.0,58,0.00,,,0.00,1042.0,meteohub,2013-02-15 16:02:00,
2013-02-15 12:07:00,88.0,70.9,30.09,SSE,168,5.0,14.0,57,0.00,,,0.00,1091.0,meteohub,2013-02-15 16:07:00,
2013-02-15 12:12:00,88.2,71.1,30.09,South,191,6.0,14.0,57,0.00,,,0.00,1006.0,meteohub,2013-02-15 16:12:00,
2013-02-15 12:17:00,88.0,71.4,30.08,SE,130,6.0,16.0,58,0.00,,,0.00,869.0,meteohub,2013-02-15 16:17:00,
2013-02-15 12:22:00,88.0,71.4,30.08,South,179,8.0,16.0,58,0.00,,,0.00,1024.0,meteohub,2013-02-15 16:22:00,
2013-02-15 12:27:00,88.3,70.7,30.08,SSW,196,2.0,16.0,56,0.00,,,0.00,1021.0,meteohub,2013-02-15 16:27:00,
2013-02-15 12:32:00,88.9,71.1,30.08,SSE,157,3.0,12.0,56,0.00,,,0.00,1089.0,meteohub,2013-02-15 16:32:00,
2013-02-15 12:37:00,89.4,71.6,30.08,South,189,7.0,13.0,56,0.00,,,0.00,1063.0,meteohub,2013-02-15 16:37:00,
2013-02-15 12:42:00,89.1,71.2,30.08,South,185,7.0,13.0,56,0.00,,,0.00,230.0,meteohub,2013-02-15 16:42:00,
2013-02-15 12:47:00,88.3,71.2,30.07,SSE,151,0.0,11.0,57,0.00,,,0.00,1096.0,meteohub,2013-02-15 16:47:00,
2013-02-15 12:53:00,88.9,71.6,30.07,SSE,147,8.0,14.0,57,0.00,,,0.00,1079.0,meteohub,2013-02-15 16:53:00,
2013-02-15 12:57:00,89.1,71.2,30.07,SSE,162,10.0,14.0,56,0.00,,,0.00,1024.0,meteohub,2013-02-15 16:57:00,
2013-02-15 13:03:00,88.3,71.6,30.07,SSE,155,5.0,16.0,58,0.00,,,0.00,192.0,meteohub,2013-02-15 17:03:00,
2013-02-15 13:08:00,87.4,70.9,30.07,SSE,164,11.0,16.0,58,0.00,,,0.00,192.0,meteohub,2013-02-15 17:08:00,
2013-02-15 13:13:00,87.1,71.4,30.06,SE,133,5.0,16.0,60,0.00,,,0.00,1033.0,meteohub,2013-02-15 17:13:00,
2013-02-15 13:18:00,87.8,71.6,30.06,SSE,160,2.0,14.0,59,0.00,,,0.00,940.0,meteohub,2013-02-15 17:18:00,
2013-02-15 13:23:00,87.8,71.6,30.06,SSE,161,1.0,15.0,59,0.00,,,0.00,901.0,meteohub,2013-02-15 17:23:00,
2013-02-15 13:28:00,88.2,71.6,30.05,South,189,10.0,15.0,58,0.00,,,0.00,892.0,meteohub,2013-02-15 17:28:00,
2013-02-15 13:33:00,88.3,71.2,30.05,South,184,7.0,17.0,57,0.00,,,0.00,153.0,meteohub,2013-02-15 17:33:00,
2013-02-15 13:38:00,88.2,71.6,30.05,SE,134,9.0,17.0,58,0.00,,,0.00,999.0,meteohub,2013-02-15 17:38:00,
2013-02-15 13:43:00,87.6,71.6,30.04,SSE,152,13.0,17.0,59,0.00,,,0.00,216.0,meteohub,2013-02-15 17:43:00,
2013-02-15 13:48:00,87.4,71.4,30.04,SE,136,6.0,15.0,59,0.00,,,0.00,964.0,meteohub,2013-02-15 17:48:00,
2013-02-15 13:53:00,88.0,71.4,30.04,South,171,4.0,15.0,58,0.00,,,0.00,913.0,meteohub,2013-02-15 17:53:00,
2013-02-15 13:58:00,88.3,71.2,30.04,SSE,168,2.0,14.0,57,0.00,,,0.00,869.0,meteohub,2013-02-15 17:58:00,
2013-02-15 14:03:00,88.5,70.9,30.04,SSW,210,9.0,17.0,56,0.00,,,0.00,862.0,meteohub,2013-02-15 18:03:00,
2013-02-15 14:08:00,88.3,69.6,30.04,WSW,240,11.0,18.0,54,0.00,,,0.00,841.0,meteohub,2013-02-15 18:08:00,
2013-02-15 14:13:00,88.2,71.1,30.03,SSW,198,10.0,18.0,57,0.00,,,0.00,820.0,meteohub,2013-02-15 18:13:00,
2013-02-15 14:18:00,87.6,71.1,30.03,South,179,3.0,18.0,58,0.00,,,0.00,794.0,meteohub,2013-02-15 18:18:00,
2013-02-15 14:23:00,87.6,71.1,30.03,South,182,2.0,15.0,58,0.00,,,0.00,785.0,meteohub,2013-02-15 18:23:00,
2013-02-15 14:28:00,88.0,71.4,30.02,SSE,161,5.0,15.0,58,0.00,,,0.00,845.0,meteohub,2013-02-15 18:28:00,
2013-02-15 14:33:00,88.3,71.2,30.02,SE,141,2.0,15.0,57,0.00,,,0.00,781.0,meteohub,2013-02-15 18:33:00,
2013-02-15 14:38:00,88.2,71.1,30.02,SSW,199,7.0,14.0,57,0.00,,,0.00,762.0,meteohub,2013-02-15 18:38:00,
2013-02-15 14:44:00,87.8,70.2,30.02,SSE,151,3.0,14.0,56,0.00,,,0.00,744.0,meteohub,2013-02-15 18:44:00,
2013-02-15 14:48:00,87.8,69.6,30.02,ESE,109,6.0,16.0,55,0.00,,,0.00,728.0,meteohub,2013-02-15 18:48:00,
2013-02-15 14:53:00,88.0,70.3,30.02,SE,144,0.0,16.0,56,0.00,,,0.00,713.0,meteohub,2013-02-15 18:53:00,
2013-02-15 14:58:00,88.3,71.2,30.01,SSW,205,3.0,16.0,57,0.00,,,0.00,695.0,meteohub,2013-02-15 18:58:00,
2013-02-15 15:04:00,88.0,70.9,30.01,SSE,150,4.0,14.0,57,0.00,,,0.00,699.0,meteohub,2013-02-15 19:04:00,
2013-02-15 15:09:00,87.8,71.2,30.01,SSE,164,8.0,14.0,58,0.00,,,0.00,674.0,meteohub,2013-02-15 19:09:00,
2013-02-15 15:14:00,87.8,71.2,30.01,SSW,209,4.0,14.0,58,0.00,,,0.00,670.0,meteohub,2013-02-15 19:14:00,
2013-02-15 15:19:00,87.8,71.2,30.01,South,175,5.0,14.0,58,0.00,,,0.00,655.0,meteohub,2013-02-15 19:19:00,
2013-02-15 15:24:00,87.6,70.5,30.01,SSE,155,8.0,13.0,57,0.00,,,0.00,639.0,meteohub,2013-02-15 19:24:00,
2013-02-15 15:29:00,87.6,69.4,30.01,ESE,103,8.0,14.0,55,0.00,,,0.00,632.0,meteohub,2013-02-15 19:29:00,
2013-02-15 15:34:00,87.8,69.1,30.01,SE,131,7.0,16.0,54,0.00,,,0.00,639.0,meteohub,2013-02-15 19:34:00,
2013-02-15 15:39:00,87.6,70.0,30.01,SSE,162,12.0,16.0,56,0.00,,,0.00,575.0,meteohub,2013-02-15 19:39:00,
2013-02-15 15:44:00,87.4,69.8,30.01,SE,133,4.0,18.0,56,0.00,,,0.00,561.0,meteohub,2013-02-15 19:44:00,
2013-02-15 15:49:00,86.7,69.1,30.01,SE,131,6.0,18.0,56,0.00,,,0.00,549.0,meteohub,2013-02-15 19:49:00,
2013-02-15 15:54:00,86.7,69.6,30.01,SSE,155,7.0,15.0,57,0.00,,,0.00,540.0,meteohub,2013-02-15 19:54:00,
2013-02-15 16:00:00,86.7,68.5,30.01,SSE,158,3.0,16.0,55,0.00,,,0.00,570.0,meteohub,2013-02-15 20:00:00,
2013-02-15 16:05:00,87.1,70.0,30.01,South,176,11.0,16.0,57,0.00,,,0.00,526.0,meteohub,2013-02-15 20:05:00,
2013-02-15 16:10:00,86.7,69.1,30.01,South,174,4.0,13.0,56,0.00,,,0.00,491.0,meteohub,2013-02-15 20:10:00,
2013-02-15 16:15:00,86.7,69.6,30.01,ESE,110,3.0,18.0,57,0.00,,,0.00,468.0,meteohub,2013-02-15 20:15:00,
2013-02-15 16:20:00,86.5,69.4,30.01,SSE,165,7.0,18.0,57,0.00,,,0.00,443.0,meteohub,2013-02-15 20:20:00,
2013-02-15 16:25:00,86.5,69.4,30.01,SSE,157,6.0,14.0,57,0.00,,,0.00,415.0,meteohub,2013-02-15 20:25:00,
2013-02-15 16:30:00,86.2,70.7,30.01,South,175,2.0,17.0,60,0.00,,,0.00,394.0,meteohub,2013-02-15 20:30:00,
2013-02-15 16:35:00,85.8,70.9,30.01,SSE,162,0.0,17.0,61,0.00,,,0.00,392.0,meteohub,2013-02-15 20:35:00,
2013-02-15 16:40:00,85.5,70.9,30.01,South,188,2.0,12.0,62,0.00,,,0.00,419.0,meteohub,2013-02-15 20:40:00,
2013-02-15 16:45:00,85.5,70.9,30.01,SSE,165,0.0,14.0,62,0.00,,,0.00,382.0,meteohub,2013-02-15 20:45:00,
2013-02-15 16:50:00,85.5,70.0,30.01,SE,143,11.0,14.0,60,0.00,,,0.00,264.0,meteohub,2013-02-15 20:50:00,
2013-02-15 16:55:00,85.3,69.3,30.01,ESE,120,6.0,14.0,59,0.00,,,0.00,55.0,meteohub,2013-02-15 20:55:00,
2013-02-15 17:00:00,85.1,70.2,30.01,SSE,167,2.0,13.0,61,0.00,,,0.00,46.0,meteohub,2013-02-15 21:00:00,
2013-02-15 17:05:00,84.9,70.5,30.01,South,176,3.0,13.0,62,0.00,,,0.00,56.0,meteohub,2013-02-15 21:05:00,
2013-02-15 17:10:00,84.4,70.3,30.01,SSW,198,5.0,13.0,63,0.00,,,0.00,56.0,meteohub,2013-02-15 21:10:00,
2013-02-15 17:15:00,83.8,70.3,30.01,SSE,155,2.0,13.0,64,0.00,,,0.00,53.0,meteohub,2013-02-15 21:15:00,
2013-02-15 17:20:00,83.7,70.7,30.01,SE,143,4.0,13.0,65,0.00,,,0.00,44.0,meteohub,2013-02-15 21:20:00,
2013-02-15 17:25:00,83.7,70.7,30.01,ESE,104,1.0,11.0,65,0.00,,,0.00,49.0,meteohub,2013-02-15 21:25:00,
2013-02-15 17:31:00,83.7,71.1,30.01,SSE,162,5.0,9.0,66,0.00,,,0.00,55.0,meteohub,2013-02-15 21:31:00,
2013-02-15 17:36:00,83.5,70.9,30.01,SE,126,0.0,10.0,66,0.00,,,0.00,44.0,meteohub,2013-02-15 21:36:00,
2013-02-15 17:41:00,83.1,70.5,30.01,SW,220,7.0,10.0,66,0.00,,,0.00,39.0,meteohub,2013-02-15 21:41:00,
2013-02-15 17:46:00,82.6,70.0,30.02,SSE,165,2.0,12.0,66,0.00,,,0.00,46.0,meteohub,2013-02-15 21:46:00,
2013-02-15 17:51:00,82.6,70.5,30.02,SSE,157,0.0,12.0,67,0.00,,,0.00,26.0,meteohub,2013-02-15 21:51:00,
2013-02-15 17:56:00,82.6,70.9,30.02,SE,136,2.0,12.0,68,0.00,,,0.00,26.0,meteohub,2013-02-15 21:56:00,
2013-02-15 18:01:00,82.4,70.3,30.02,SSE,150,5.0,12.0,67,0.00,,,0.00,21.0,meteohub,2013-02-15 22:01:00,
2013-02-15 18:06:00,82.2,71.1,30.02,South,175,6.0,12.0,69,0.00,,,0.00,18.0,meteohub,2013-02-15 22:06:00,
2013-02-15 18:11:00,81.9,71.1,30.02,SE,145,5.0,11.0,70,0.00,,,0.00,12.0,meteohub,2013-02-15 22:11:00,
2013-02-15 18:16:00,81.7,70.9,30.02,SE,140,0.0,10.0,70,0.00,,,0.00,9.0,meteohub,2013-02-15 22:16:00,
2013-02-15 18:21:00,81.1,70.0,30.02,SSE,148,2.0,10.0,69,0.00,,,0.00,7.0,meteohub,2013-02-15 22:21:00,
2013-02-15 18:26:00,81.1,70.3,30.02,South,175,2.0,10.0,70,0.00,,,0.00,0.0,meteohub,2013-02-15 22:26:00,
2013-02-15 18:31:00,81.0,70.7,30.02,SSE,161,0.0,7.0,71,0.00,,,0.00,0.0,meteohub,2013-02-15 22:31:00,
2013-02-15 18:36:00,80.8,70.9,30.02,SE,141,0.0,8.0,72,0.00,,,0.00,0.0,meteohub,2013-02-15 22:36:00,
2013-02-15 18:41:00,80.4,71.4,30.02,SSE,162,1.0,10.0,74,0.00,,,0.00,0.0,meteohub,2013-02-15 22:41:00,
2013-02-15 18:46:00,80.1,71.4,30.02,SE,145,0.0,10.0,75,0.00,,,0.00,0.0,meteohub,2013-02-15 22:46:00,
2013-02-15 18:51:00,79.9,71.6,30.02,SSE,164,6.0,10.0,76,0.00,,,0.00,0.0,meteohub,2013-02-15 22:51:00,
2013-02-15 18:56:00,79.9,71.6,30.02,SE,140,3.0,9.0,76,0.00,,,0.00,0.0,meteohub,2013-02-15 22:56:00,
2013-02-15 19:01:00,79.9,72.0,30.03,SSE,148,2.0,9.0,77,0.00,,,0.00,0.0,meteohub,2013-02-15 23:01:00,
2013-02-15 19:06:00,79.9,72.0,30.03,SE,143,0.0,9.0,77,0.00,,,0.00,0.0,meteohub,2013-02-15 23:06:00,
2013-02-15 19:11:00,79.5,71.6,30.03,SSE,154,0.0,8.0,77,0.00,,,0.00,0.0,meteohub,2013-02-15 23:11:00,
2013-02-15 19:16:00,79.3,72.0,30.03,SSE,168,0.0,8.0,78,0.00,,,0.00,0.0,meteohub,2013-02-15 23:16:00,
2013-02-15 19:21:00,79.3,72.0,30.03,SSE,147,3.0,8.0,78,0.00,,,0.00,0.0,meteohub,2013-02-15 23:21:00,
2013-02-15 19:27:00,79.2,72.1,30.03,SSE,150,6.0,11.0,79,0.00,,,0.00,0.0,meteohub,2013-02-15 23:27:00,
2013-02-15 19:32:00,79.0,72.0,30.04,SSE,150,0.0,11.0,79,0.00,,,0.00,0.0,meteohub,2013-02-15 23:32:00,
2013-02-15 19:37:00,79.0,72.3,30.04,SE,131,0.0,11.0,80,0.00,,,0.00,0.0,meteohub,2013-02-15 23:37:00,
2013-02-15 19:42:00,78.8,72.1,30.04,East,99,0.0,10.0,80,0.00,,,0.00,0.0,meteohub,2013-02-15 23:42:00,
2013-02-15 19:47:00,78.8,72.1,30.04,East,90,0.0,10.0,80,0.00,,,0.00,0.0,meteohub,2013-02-15 23:47:00,
2013-02-15 19:52:00,78.6,72.3,30.04,ESE,103,5.0,10.0,81,0.00,,,0.00,0.0,meteohub,2013-02-15 23:52:00,
2013-02-15 19:57:00,78.6,72.3,30.04,SE,124,0.0,6.0,81,0.00,,,0.00,0.0,meteohub,2013-02-15 23:57:00,
2013-02-15 20:02:00,78.4,72.1,30.05,ESE,123,0.0,6.0,81,0.00,,,0.00,0.0,meteohub,2013-02-16 00:02:00,
2013-02-15 20:07:00,78.4,72.1,30.05,ESE,119,0.0,6.0,81,0.00,,,0.00,0.0,meteohub,2013-02-16 00:07:00,
2013-02-15 20:12:00,78.3,72.0,30.05,SE,128,0.0,6.0,81,0.00,,,0.00,0.0,meteohub,2013-02-16 00:12:00,
2013-02-15 20:17:00,78.1,72.1,30.05,SE,127,0.0,6.0,82,0.00,,,0.00,0.0,meteohub,2013-02-16 00:17:00,
2013-02-15 20:22:00,78.1,72.1,30.05,SE,128,0.0,7.0,82,0.00,,,0.00,0.0,meteohub,2013-02-16 00:22:00,
2013-02-15 20:27:00,77.9,72.0,30.05,ESE,110,0.0,7.0,82,0.00,,,0.00,0.0,meteohub,2013-02-16 00:27:00,
2013-02-15 20:32:00,77.9,72.0,30.05,ESE,113,0.0,6.0,82,0.00,,,0.00,0.0,meteohub,2013-02-16 00:32:00,
2013-02-15 20:37:00,77.7,71.8,30.05,ESE,114,0.0,6.0,82,0.00,,,0.00,0.0,meteohub,2013-02-16 00:37:00,
2013-02-15 20:42:00,77.7,71.8,30.05,ESE,114,0.0,4.0,82,0.00,,,0.00,0.0,meteohub,2013-02-16 00:42:00,
2013-02-15 20:47:00,77.5,71.6,30.06,ESE,113,0.0,0.0,82,0.00,,,0.00,0.0,meteohub,2013-02-16 00:47:00,
2013-02-15 20:52:00,77.5,71.6,30.06,ESE,113,0.0,6.0,82,0.00,,,0.00,0.0,meteohub,2013-02-16 00:52:00,
2013-02-15 20:57:00,77.4,71.4,30.06,ESE,113,0.0,6.0,82,0.00,,,0.00,0.0,meteohub,2013-02-16 00:57:00,
2013-02-15 21:02:00,77.4,71.4,30.06,ESE,114,0.0,6.0,82,0.00,,,0.00,0.0,meteohub,2013-02-16 01:02:00,
2013-02-15 21:07:00,77.4,71.8,30.06,ESE,114,0.0,5.0,83,0.00,,,0.00,0.0,meteohub,2013-02-16 01:07:00,
2013-02-15 21:12:00,77.2,71.2,30.06,ESE,123,0.0,1.0,82,0.00,,,0.00,0.0,meteohub,2013-02-16 01:12:00,
2013-02-15 21:17:00,77.0,71.4,30.07,ESE,120,0.0,2.0,83,0.00,,,0.00,0.0,meteohub,2013-02-16 01:17:00,
2013-02-15 21:22:00,76.8,71.2,30.07,ESE,112,0.0,3.0,83,0.00,,,0.00,0.0,meteohub,2013-02-16 01:22:00,
2013-02-15 21:27:00,76.8,71.2,30.07,ESE,112,0.0,3.0,83,0.00,,,0.00,0.0,meteohub,2013-02-16 01:27:00,
2013-02-15 21:32:00,76.8,71.2,30.07,ESE,113,0.0,0.0,83,0.00,,,0.00,0.0,meteohub,2013-02-16 01:32:00,
2013-02-15 21:37:00,76.6,71.4,30.07,ESE,113,0.0,0.0,84,0.00,,,0.00,0.0,meteohub,2013-02-16 01:37:00,
2013-02-15 21:42:00,76.6,71.4,30.07,ENE,69,0.0,0.0,84,0.00,,,0.00,0.0,meteohub,2013-02-16 01:42:00,
2013-02-15 21:47:00,76.6,71.4,30.07,ENE,71,0.0,3.0,84,0.00,,,0.00,0.0,meteohub,2013-02-16 01:47:00,
2013-02-15 21:52:00,76.5,71.2,30.07,ENE,71,0.0,3.0,84,0.00,,,0.00,0.0,meteohub,2013-02-16 01:52:00,
2013-02-15 21:57:00,76.5,71.2,30.07,ENE,71,0.0,3.0,84,0.00,,,0.00,0.0,meteohub,2013-02-16 01:57:00,
2013-02-15 22:02:00,76.3,71.1,30.07,ENE,71,0.0,0.0,84,0.00,,,0.00,0.0,meteohub,2013-02-16 02:02:00,
2013-02-15 22:07:00,76.1,71.2,30.07,ENE,69,0.0,0.0,85,0.00,,,0.00,0.0,meteohub,2013-02-16 02:07:00,
2013-02-15 22:12:00,75.9,71.1,30.07,ENE,69,0.0,0.0,85,0.00,,,0.00,0.0,meteohub,2013-02-16 02:12:00,
2013-02-15 22:17:00,75.7,70.9,30.07,ENE,71,0.0,0.0,85,0.00,,,0.00,0.0,meteohub,2013-02-16 02:17:00,
2013-02-15 22:22:00,75.6,71.1,30.07,ENE,71,0.0,0.0,86,0.00,,,0.00,0.0,meteohub,2013-02-16 02:22:00,
2013-02-15 22:27:00,75.4,70.9,30.07,ENE,71,0.0,0.0,86,0.00,,,0.00,0.0,meteohub,2013-02-16 02:27:00,
2013-02-15 22:32:00,75.4,70.9,30.07,ENE,69,0.0,0.0,86,0.00,,,0.00,0.0,meteohub,2013-02-16 02:32:00,
2013-02-15 22:37:00,75.4,70.9,30.07,ENE,69,0.0,0.0,86,0.00,,,0.00,0.0,meteohub,2013-02-16 02:37:00,
2013-02-15 22:43:00,75.4,70.9,30.07,ENE,69,0.0,0.0,86,0.00,,,0.00,0.0,meteohub,2013-02-16 02:43:00,
2013-02-15 22:48:00,75.4,70.5,30.07,ENE,71,0.0,0.0,85,0.00,,,0.00,0.0,meteohub,2013-02-16 02:48:00,
2013-02-15 22:53:00,75.0,70.2,30.07,ENE,71,0.0,0.0,85,0.00,,,0.00,0.0,meteohub,2013-02-16 02:53:00,
2013-02-15 22:58:00,75.4,70.5,30.07,ENE,71,0.0,0.0,85,0.00,,,0.00,0.0,meteohub,2013-02-16 02:58:00,
2013-02-15 23:03:00,75.4,70.5,30.07,ENE,71,0.0,0.0,85,0.00,,,0.00,0.0,meteohub,2013-02-16 03:03:00,
2013-02-15 23:08:00,75.0,70.2,30.07,ENE,71,0.0,0.0,85,0.00,,,0.00,0.0,meteohub,2013-02-16 03:08:00,
2013-02-15 23:13:00,75.0,70.2,30.07,ENE,71,0.0,0.0,85,0.00,,,0.00,0.0,meteohub,2013-02-16 03:13:00,
2013-02-15 23:18:00,75.4,70.5,30.07,ENE,71,0.0,0.0,85,0.00,,,0.00,0.0,meteohub,2013-02-16 03:18:00,
2013-02-15 23:23:00,75.4,70.5,30.07,ENE,71,0.0,0.0,85,0.00,,,0.00,0.0,meteohub,2013-02-16 03:23:00,
2013-02-15 23:28:00,75.4,70.2,30.07,ENE,69,0.0,0.0,84,0.00,,,0.00,0.0,meteohub,2013-02-16 03:28:00,
2013-02-15 23:33:00,75.4,70.2,30.07,ENE,71,0.0,0.0,84,0.00,,,0.00,0.0,meteohub,2013-02-16 03:33:00,
2013-02-15 23:38:00,75.0,70.2,30.07,ENE,71,0.0,0.0,85,0.00,,,0.00,0.0,meteohub,2013-02-16 03:38:00,
2013-02-15 23:43:00,74.8,70.0,30.07,ENE,71,0.0,0.0,85,0.00,,,0.00,0.0,meteohub,2013-02-16 03:43:00,
2013-02-15 23:48:00,74.7,69.8,30.07,ENE,71,0.0,0.0,85,0.00,,,0.00,0.0,meteohub,2013-02-16 03:48:00,
2013-02-15 23:53:00,74.8,70.3,30.07,ENE,71,0.0,0.0,86,0.00,,,0.00,0.0,meteohub,2013-02-16 03:53:00,
2013-02-15 23:58:00,74.7,70.2,30.07,ENE,72,0.0,0.0,86,0.00,,,0.00,0.0,meteohub,2013-02-16 03:58:00,